createdAt,value
2015-09-07T00:02:25.882Z,101221
2015-09-07T00:07:29.033Z,101225
2015-09-07T00:12:31.215Z,101221
2015-09-07T00:17:33.396Z,101226
2015-09-07T00:22:35.062Z,101222
2015-09-07T00:27:37.197Z,101214
2015-09-07T00:32:41.222Z,101222
2015-09-07T00:37:42.029Z,101208
2015-09-07T00:42:44.445Z,101216
2015-09-07T00:47:45.783Z,101215
2015-09-07T00:52:49.869Z,101208
2015-09-07T00:57:51.332Z,101211
2015-09-07T01:02:54.342Z,101208
2015-09-07T01:07:56.632Z,101203
2015-09-07T01:12:58.252Z,101209
2015-09-07T01:18:00.840Z,101196
2015-09-07T01:22:23.381Z,101194
2015-09-07T01:27:26.420Z,101203
2015-09-07T01:32:27.883Z,101194
2015-09-07T01:37:31.518Z,101200
2015-09-07T01:42:33.309Z,101203
2015-09-07T01:47:35.974Z,101196
2015-09-07T01:52:39.001Z,101196
2015-09-07T01:57:40.167Z,101193
2015-09-07T02:02:42.910Z,101186
2015-09-07T02:07:46.467Z,101176
2015-09-07T02:12:47.477Z,101179
2015-09-07T02:17:49.753Z,101174
2015-09-07T02:22:53.012Z,101168
2015-09-07T02:27:54.725Z,101168
2015-09-07T02:32:56.610Z,101154
2015-09-07T02:38:00.151Z,101163
2015-09-07T02:43:01.206Z,101163
2015-09-07T02:48:03.340Z,101158
2015-09-07T02:53:05.695Z,101154
2015-09-07T02:58:07.985Z,101157
2015-09-07T03:03:10.183Z,101155
2015-09-07T03:08:12.567Z,101143
2015-09-07T03:13:14.703Z,101148
2015-09-07T03:18:16.993Z,101147
2015-09-07T03:23:19.768Z,101143
2015-09-07T03:28:21.044Z,101152
2015-09-07T03:33:24.429Z,101150
2015-09-07T03:38:26.377Z,101135
2015-09-07T03:43:29.339Z,101143
2015-09-07T03:48:31.724Z,101134
2015-09-07T03:53:34.216Z,101142
2015-09-07T03:58:36.225Z,101138
2015-09-07T04:03:38.501Z,101150
2015-09-07T04:13:42.599Z,101137
2015-09-07T04:18:46.531Z,101158
2015-09-07T04:23:47.978Z,101154
2015-09-07T04:28:49.863Z,101145
2015-09-07T04:33:52.169Z,101144
2015-09-07T04:38:55.946Z,101134
2015-09-07T04:43:56.737Z,101143
2015-09-07T04:48:58.980Z,101134
2015-09-07T04:54:01.255Z,101154
2015-09-07T04:59:03.032Z,101157
2015-09-07T05:04:06.634Z,101157
2015-09-07T05:09:08.457Z,101154
2015-09-07T05:14:11.604Z,101171
2015-09-07T05:19:12.599Z,101181
2015-09-07T05:24:14.843Z,101190
2015-09-07T05:29:17.119Z,101180
2015-09-07T05:34:19.394Z,101185
2015-09-07T05:39:21.233Z,101180
2015-09-07T05:44:23.555Z,101162
2015-09-07T05:49:27.690Z,101182
2015-09-07T05:54:28.512Z,101169
2015-09-07T05:59:30.834Z,101169
2015-09-07T06:04:33.047Z,101185
2015-09-07T06:09:35.323Z,101189
2015-09-07T06:14:37.644Z,101185
2015-09-07T06:19:39.827Z,101186
2015-09-07T06:24:42.242Z,101180
2015-09-07T06:29:43.987Z,101195
2015-09-07T06:34:47.557Z,101199
2015-09-07T06:39:49.555Z,101190
2015-09-07T06:44:51.554Z,101199
2015-09-07T06:49:53.784Z,101197
2015-09-07T06:54:56.197Z,101206
2015-09-07T06:59:58.399Z,101205
2015-09-07T07:05:00.144Z,101200
2015-09-07T07:10:02.497Z,101203
2015-09-07T07:15:06.944Z,101212
2015-09-07T07:20:10.189Z,101218
2015-09-07T07:25:11.746Z,101233
2015-09-07T07:30:13.631Z,101227
2015-09-07T07:35:15.936Z,101230
2015-09-07T07:40:18.321Z,101227
2015-09-07T07:45:20.519Z,101230
2015-09-07T07:50:22.762Z,101231
2015-09-07T07:55:24.521Z,101231
2015-09-07T08:00:28.189Z,101245
2015-09-07T08:05:30.291Z,101248
2015-09-07T08:10:31.896Z,101248
2015-09-07T08:15:34.233Z,101252
2015-09-07T08:20:36.399Z,101249
2015-09-07T08:25:38.675Z,101260
2015-09-07T08:30:41.012Z,101261
2015-09-07T08:35:43.193Z,101254
2015-09-07T08:40:45.470Z,101258
2015-09-07T08:45:49.494Z,101243
2015-09-07T08:50:52.519Z,101248
2015-09-07T08:55:54.357Z,101255
2015-09-07T09:00:56.570Z,101245
2015-09-07T09:05:58.923Z,101245
2015-09-07T09:11:00.637Z,101232
2015-09-07T09:16:03.395Z,101245
2015-09-07T09:21:05.514Z,101220
2015-09-07T09:26:07.446Z,101223
2015-09-07T09:31:10.159Z,101222
2015-09-07T09:36:12.809Z,101220
2015-09-07T09:41:14.678Z,101235
2015-09-07T09:46:16.953Z,101238
2015-09-07T09:51:19.230Z,101226
2015-09-07T09:56:21.629Z,101235
2015-09-07T10:01:23.874Z,101231
2015-09-07T10:06:25.680Z,101238
2015-09-07T10:11:29.705Z,101230
2015-09-07T10:16:31.043Z,101230
2015-09-07T10:21:34.241Z,101215
2015-09-07T10:26:35.281Z,101216
2015-09-07T10:31:37.666Z,101216
2015-09-07T10:36:39.817Z,101213
2015-09-07T10:41:42.092Z,101203
2015-09-07T10:46:44.320Z,101218
2015-09-07T10:51:47.017Z,101218
2015-09-07T10:56:49.494Z,101204
2015-09-07T11:01:51.426Z,101207
2015-09-07T11:06:54.482Z,101204
2015-09-07T11:11:56.665Z,101210
2015-09-07T11:16:59.019Z,101207
2015-09-07T11:22:02.043Z,101205
2015-09-07T11:27:04.397Z,101214
2015-09-07T11:32:06.563Z,101197
2015-09-07T11:37:08.354Z,101202
2015-09-07T11:42:11.552Z,101208
2015-09-07T11:47:13.374Z,101214
2015-09-07T11:52:15.649Z,101217
2015-09-07T11:57:18.003Z,101201
2015-09-07T12:02:20.277Z,101200
2015-09-07T12:07:23.457Z,101208
2015-09-07T12:12:25.639Z,101201
2015-09-07T12:17:28.290Z,101195
2015-09-07T12:22:31.441Z,101194
2015-09-07T12:27:34.622Z,101182
2015-09-07T12:32:35.960Z,101194
2015-09-07T12:37:38.173Z,101188
2015-09-07T12:42:42.073Z,101200
2015-09-07T12:47:43.536Z,101206
2015-09-07T12:52:45.420Z,101200
2015-09-07T12:57:47.353Z,101193
2015-09-07T13:02:51.253Z,101192
2015-09-07T13:07:53.138Z,101192
2015-09-07T13:12:55.381Z,101195
2015-09-07T13:17:57.626Z,101189
2015-09-07T13:23:00.340Z,101188
2015-09-07T13:28:03.130Z,101192
2015-09-07T13:33:04.437Z,101178
2015-09-07T13:38:06.726Z,101184
2015-09-07T13:43:08.720Z,101182
2015-09-07T13:48:12.464Z,101166
2015-09-07T13:53:13.661Z,101181
2015-09-07T13:58:15.842Z,101171
2015-09-07T14:03:18.181Z,101160
2015-09-07T14:08:20.487Z,101156
2015-09-07T14:13:22.747Z,101169
2015-09-07T14:18:25.022Z,101166
2015-09-07T14:23:27.283Z,101149
2015-09-07T14:28:29.277Z,101144
2015-09-07T14:33:32.084Z,101136
2015-09-07T14:38:34.015Z,101123
2015-09-07T14:43:36.306Z,101123
2015-09-07T14:48:38.579Z,101125
2015-09-07T14:53:40.856Z,101131
2015-09-07T14:58:43.131Z,101131
2015-09-07T15:03:45.390Z,101124
2015-09-07T15:08:47.635Z,101120
2015-09-07T15:13:50.207Z,101135
2015-09-07T15:18:53.514Z,101126
2015-09-07T15:23:54.460Z,101134
2015-09-07T15:28:56.674Z,101126
2015-09-07T15:33:58.949Z,101129
2015-09-07T15:39:01.286Z,101140
2015-09-07T15:44:04.723Z,101133
2015-09-07T15:49:07.058Z,101138
2015-09-07T15:54:09.398Z,101143
2015-09-07T15:59:11.362Z,101147
2015-09-07T16:04:14.611Z,101152
2015-09-07T16:09:16.312Z,101146
2015-09-07T16:14:18.587Z,101131
2015-09-07T16:19:21.674Z,101147
2015-09-07T16:24:24.043Z,101147
2015-09-07T16:29:26.334Z,101156
2015-09-07T16:34:28.532Z,101164
2015-09-07T16:39:30.995Z,101156
2015-09-07T16:44:32.630Z,101149
2015-09-07T16:49:35.717Z,101155
2015-09-07T16:54:37.665Z,101165
2015-09-07T16:59:39.863Z,101163
2015-09-07T17:04:42.153Z,101156
2015-09-07T17:09:44.382Z,101162
2015-09-07T17:14:46.689Z,101161
2015-09-07T17:19:48.900Z,101173
2015-09-07T17:24:51.190Z,101164
2015-09-07T17:29:53.075Z,101164
2015-09-07T17:34:55.867Z,101176
2015-09-07T17:39:58.783Z,101165
2015-09-07T17:45:00.293Z,101178
2015-09-07T17:50:02.631Z,101175
2015-09-07T17:55:06.578Z,101185
2015-09-07T18:00:08.353Z,101184
2015-09-07T18:05:12.472Z,101184
2015-09-07T18:10:15.731Z,101196
2015-09-07T18:15:16.945Z,101193
2015-09-07T18:20:18.439Z,101194
2015-09-07T18:25:21.136Z,101204
2015-09-07T18:30:23.020Z,101206
2015-09-07T18:35:25.702Z,101203
2015-09-07T18:40:28.134Z,101207
2015-09-07T18:45:30.283Z,101207
2015-09-07T18:50:32.120Z,101219
2015-09-07T18:55:34.334Z,101212
2015-09-07T19:00:37.391Z,101216
2015-09-07T19:05:39.447Z,101214
2015-09-07T19:10:41.754Z,101217
2015-09-07T19:15:44.014Z,101223
2015-09-07T19:20:46.352Z,101232
2015-09-07T19:25:48.565Z,101216
2015-09-07T19:30:51.011Z,101223
2015-09-07T19:35:53.225Z,101220
2015-09-07T19:40:55.031Z,101232
2015-09-07T19:45:58.791Z,101233
2015-09-07T19:51:00.082Z,101233
2015-09-07T19:56:02.357Z,101241
2015-09-07T20:01:04.602Z,101244
2015-09-07T20:06:06.938Z,101237
2015-09-07T20:11:09.963Z,101222
2015-09-07T20:16:12.301Z,101232
2015-09-07T20:21:14.514Z,101243
2015-09-07T20:25:31.696Z,101234
2015-09-07T20:30:35.219Z,101227
2015-09-07T20:35:36.228Z,101228
2015-09-07T20:40:38.582Z,101224
2015-09-07T20:45:40.889Z,101227
2015-09-07T20:50:43.586Z,101228
2015-09-07T20:55:45.862Z,101221
2015-09-07T21:00:49.574Z,101227
2015-09-07T21:05:50.459Z,101232
2015-09-07T21:10:53.141Z,101227
2015-09-07T21:15:54.978Z,101229
2015-09-07T21:20:56.739Z,101224
2015-09-07T21:26:00.982Z,101210
2015-09-07T21:31:01.836Z,101223
2015-09-07T21:36:03.627Z,101213
2015-09-07T21:41:05.918Z,101220
2015-09-07T21:46:09.991Z,101228
2015-09-07T21:51:10.938Z,101232
2015-09-07T21:56:15.447Z,101214
2015-09-07T22:01:16.299Z,101218
2015-09-07T22:06:18.559Z,101202
2015-09-07T22:11:20.882Z,101208
2015-09-07T22:16:23.969Z,101206
2015-09-07T22:21:26.604Z,101212
2015-09-07T22:26:29.318Z,101208
2015-09-07T22:31:31.655Z,101205
2015-09-07T22:36:33.930Z,101206
2015-09-07T22:41:36.237Z,101214
2015-09-07T22:46:39.669Z,101211
2015-09-07T22:51:41.944Z,101216
2015-09-07T22:56:44.220Z,101219
2015-09-07T23:01:46.636Z,101213
2015-09-07T23:06:49.989Z,101215
2015-09-07T23:11:52.952Z,101201
2015-09-07T23:16:54.181Z,101206
2015-09-07T23:21:56.425Z,101203
2015-09-07T23:27:00.120Z,101193
2015-09-07T23:32:01.006Z,101188
2015-09-07T23:37:03.234Z,101188
2015-09-07T23:42:05.884Z,101181
2015-09-07T23:47:07.394Z,101194
2015-09-07T23:52:10.482Z,101202
2015-09-07T23:57:12.757Z,101196
